createdAt,value
2019-05-01T00:00:37.972Z,7.87
2019-05-01T00:03:34.397Z,5.47
2019-05-01T00:06:02.433Z,4.20
2019-05-01T00:08:30.335Z,4.93
2019-05-01T00:10:58.183Z,4.03
2019-05-01T00:13:26.005Z,4.90
2019-05-01T00:15:54.486Z,4.60
2019-05-01T00:18:22.496Z,4.77
2019-05-01T00:20:50.377Z,4.47
2019-05-01T00:23:18.109Z,4.13
2019-05-01T00:25:45.935Z,3.83
2019-05-01T00:28:13.851Z,4.70
2019-05-01T00:30:41.825Z,4.10
2019-05-01T00:33:09.538Z,4.70
2019-05-01T00:35:37.326Z,4.53
2019-05-01T00:38:05.754Z,4.00
2019-05-01T00:40:33.641Z,4.87
2019-05-01T00:43:01.426Z,4.20
2019-05-01T00:45:29.323Z,4.90
2019-05-01T00:47:57.835Z,4.43
2019-05-01T00:50:25.606Z,4.07
2019-05-01T00:52:53.435Z,4.83
2019-05-01T00:55:39.747Z,4.53
2019-05-01T00:58:15.333Z,4.57
2019-05-01T01:00:54.717Z,4.60
2019-05-01T01:03:22.555Z,4.57
2019-05-01T01:05:50.540Z,4.80
2019-05-01T01:08:18.260Z,4.30
2019-05-01T01:10:46.225Z,4.70
2019-05-01T01:13:14.136Z,4.20
2019-05-01T01:15:41.897Z,4.60
2019-05-01T01:18:09.603Z,5.40
2019-05-01T01:20:37.495Z,4.47
2019-05-01T01:23:05.404Z,4.87
2019-05-01T01:25:33.726Z,4.80
2019-05-01T01:28:01.640Z,4.77
2019-05-01T01:30:31.408Z,4.73
2019-05-01T01:32:59.214Z,4.20
2019-05-01T01:35:27.204Z,4.43
2019-05-01T01:37:55.123Z,4.17
2019-05-01T01:40:23.202Z,5.03
2019-05-01T01:42:53.410Z,4.33
2019-05-01T01:45:37.696Z,4.60
2019-05-01T01:48:16.100Z,5.00
2019-05-01T01:50:45.787Z,4.23
2019-05-01T01:53:16.819Z,5.03
2019-05-01T01:55:49.054Z,4.67
2019-05-01T01:58:17.686Z,4.93
2019-05-01T02:01:17.458Z,4.90
2019-05-01T02:03:49.453Z,4.67
2019-05-01T02:06:17.530Z,4.60
2019-05-01T02:08:56.008Z,4.80
2019-05-01T02:11:15.407Z,5.53
2019-05-01T02:13:43.623Z,5.10
2019-05-01T02:16:13.294Z,5.10
2019-05-01T02:18:41.203Z,5.57
2019-05-01T02:21:09.254Z,5.00
2019-05-01T02:23:37.060Z,4.87
2019-05-01T02:26:07.327Z,5.03
2019-05-01T02:28:50.792Z,5.00
2019-05-01T02:31:32.433Z,4.73
2019-05-01T02:34:02.256Z,4.80
2019-05-01T02:36:32.921Z,5.00
2019-05-01T02:39:01.128Z,5.33
2019-05-01T02:41:36.084Z,6.07
2019-05-01T02:44:13.840Z,4.93
2019-05-01T02:46:44.399Z,4.90
2019-05-01T02:49:17.268Z,6.00
2019-05-01T02:51:48.074Z,5.20
2019-05-01T02:54:19.291Z,4.90
2019-05-01T02:56:53.704Z,5.37
2019-05-01T02:59:24.658Z,5.13
2019-05-01T03:01:52.771Z,5.20
2019-05-01T03:04:21.280Z,4.83
2019-05-01T03:06:49.608Z,5.60
2019-05-01T03:09:19.734Z,5.13
2019-05-01T03:11:50.254Z,5.10
2019-05-01T03:14:20.828Z,4.93
2019-05-01T03:16:51.770Z,5.10
2019-05-01T03:19:41.384Z,5.43
2019-05-01T03:22:27.694Z,5.87
2019-05-01T03:24:55.493Z,6.00
2019-05-01T03:27:23.675Z,5.47
2019-05-01T03:29:51.540Z,5.53
2019-05-01T03:32:20.071Z,5.70
2019-05-01T03:34:52.562Z,5.73
2019-05-01T03:37:18.213Z,6.67
2019-05-01T03:39:46.433Z,6.10
2019-05-01T03:42:14.814Z,6.60
2019-05-01T03:44:44.430Z,6.07
2019-05-01T03:47:12.544Z,6.50
2019-05-01T03:49:40.505Z,6.60
2019-05-01T03:52:08.708Z,6.20
2019-05-01T03:54:36.965Z,6.80
2019-05-01T03:57:04.870Z,7.13
2019-05-01T03:59:32.839Z,7.13
2019-05-01T04:02:32.279Z,6.83
2019-05-01T04:04:47.810Z,7.13
2019-05-01T04:07:16.022Z,6.97
2019-05-01T04:09:44.001Z,7.07
2019-05-01T04:12:11.972Z,6.90
2019-05-01T04:14:40.405Z,7.50
2019-05-01T04:17:15.025Z,6.60
2019-05-01T04:19:43.321Z,7.20
2019-05-01T04:22:13.050Z,7.00
2019-05-01T04:24:42.007Z,6.77
2019-05-01T04:27:13.672Z,6.77
2019-05-01T04:29:57.310Z,6.27
2019-05-01T04:32:30.835Z,7.03
2019-05-01T04:35:22.223Z,6.60
2019-05-01T04:37:50.853Z,6.23
2019-05-01T04:40:19.426Z,6.33
2019-05-01T04:42:47.755Z,6.40
2019-05-01T04:45:15.976Z,6.93
2019-05-01T04:47:44.064Z,5.87
2019-05-01T04:50:12.721Z,6.03
2019-05-01T04:52:40.833Z,6.13
2019-05-01T04:55:08.807Z,6.87
2019-05-01T04:57:36.546Z,6.80
2019-05-01T05:00:05.144Z,5.80
2019-05-01T05:02:46.771Z,5.90
2019-05-01T05:05:15.338Z,6.07
2019-05-01T05:07:43.722Z,5.70
2019-05-01T05:10:11.780Z,6.17
2019-05-01T05:13:06.035Z,6.10
2019-05-01T05:16:09.241Z,5.57
2019-05-01T05:18:37.733Z,6.07
2019-05-01T05:21:06.117Z,6.03
2019-05-01T05:23:34.232Z,6.47
2019-05-01T05:26:03.142Z,5.20
2019-05-01T05:28:31.913Z,5.80
2019-05-01T05:31:01.079Z,6.50
2019-05-01T05:33:41.510Z,5.97
2019-05-01T05:36:11.315Z,6.10
2019-05-01T05:38:48.422Z,6.07
2019-05-01T05:41:18.379Z,6.07
2019-05-01T05:43:48.550Z,6.83
2019-05-01T05:46:17.180Z,6.20
2019-05-01T05:48:45.228Z,6.90
2019-05-01T05:51:35.996Z,7.30
2019-05-01T05:54:16.464Z,6.63
2019-05-01T05:56:53.301Z,6.13
2019-05-01T05:59:26.232Z,6.83
2019-05-01T06:02:20.118Z,6.77
2019-05-01T06:05:15.423Z,6.97
2019-05-01T06:08:24.119Z,6.10
2019-05-01T06:11:07.068Z,6.80
2019-05-01T06:13:57.155Z,6.10
2019-05-01T06:16:46.882Z,7.57
2019-05-01T06:19:26.290Z,7.53
2019-05-01T06:22:22.784Z,8.50
2019-05-01T06:24:55.335Z,17.73
2019-05-01T06:27:24.167Z,8.53
2019-05-01T06:29:52.099Z,12.70
2019-05-01T06:32:20.085Z,21.17
2019-05-01T06:34:48.398Z,48.27
2019-05-01T06:37:16.373Z,39.97
2019-05-01T06:39:48.157Z,14.87
2019-05-01T06:42:16.918Z,7.73
2019-05-01T06:44:56.924Z,7.77
2019-05-01T06:47:47.224Z,6.57
2019-05-01T06:50:32.051Z,8.10
2019-05-01T06:53:04.735Z,6.30
2019-05-01T06:55:31.254Z,6.60
2019-05-01T06:57:59.158Z,24.93
2019-05-01T07:00:27.103Z,12.50
2019-05-01T07:02:56.939Z,19.50
2019-05-01T07:05:26.001Z,23.07
2019-05-01T07:07:55.531Z,10.23
2019-05-01T07:10:31.561Z,5.43
2019-05-01T07:12:54.419Z,5.10
2019-05-01T07:15:26.719Z,5.30
2019-05-01T07:17:52.220Z,6.53
2019-05-01T07:20:42.283Z,7.00
2019-05-01T07:23:12.728Z,5.07
2019-05-01T07:25:40.682Z,5.20
2019-05-01T07:28:09.097Z,4.73
2019-05-01T07:30:44.512Z,4.87
2019-05-01T07:33:16.740Z,5.43
2019-05-01T07:35:45.970Z,4.37
2019-05-01T07:38:13.882Z,5.00
2019-05-01T07:40:42.584Z,4.47
2019-05-01T07:43:30.213Z,3.90
2019-05-01T07:46:18.288Z,4.07
2019-05-01T07:48:46.193Z,4.00
2019-05-01T07:51:14.756Z,3.80
2019-05-01T07:53:42.859Z,3.73
2019-05-01T07:56:11.006Z,3.83
2019-05-01T07:58:39.306Z,4.30
2019-05-01T08:01:38.754Z,4.00
2019-05-01T08:04:06.493Z,3.30
2019-05-01T08:06:34.342Z,3.30
2019-05-01T08:09:02.358Z,3.73
2019-05-01T08:11:30.308Z,3.27
2019-05-01T08:14:07.247Z,3.70
2019-05-01T08:16:27.763Z,3.07
2019-05-01T08:19:09.391Z,3.70
2019-05-01T08:22:05.332Z,3.47
2019-05-01T08:24:33.120Z,3.77
2019-05-01T08:27:00.874Z,3.13
2019-05-01T08:29:46.959Z,3.27
2019-05-01T08:32:39.146Z,3.83
2019-05-01T08:35:08.198Z,3.30
2019-05-01T08:37:36.048Z,3.93
2019-05-01T08:40:04.851Z,3.23
2019-05-01T08:42:32.623Z,3.80
2019-05-01T08:45:18.472Z,3.30
2019-05-01T08:47:50.660Z,3.73
2019-05-01T08:50:19.849Z,3.00
2019-05-01T08:52:49.365Z,3.40
2019-05-01T08:55:17.184Z,3.20
2019-05-01T08:57:45.173Z,3.17
2019-05-01T09:00:13.209Z,3.40
2019-05-01T09:02:43.304Z,3.07
2019-05-01T09:05:27.850Z,3.40
2019-05-01T09:07:40.599Z,3.33
2019-05-01T09:10:09.417Z,3.40
2019-05-01T09:12:37.324Z,3.30
2019-05-01T09:15:07.089Z,2.77
2019-05-01T09:17:35.833Z,3.10
2019-05-01T09:20:03.977Z,3.53
2019-05-01T09:22:31.716Z,3.30
2019-05-01T09:25:00.299Z,3.30
2019-05-01T09:27:53.266Z,2.67
2019-05-01T09:30:26.762Z,2.80
2019-05-01T09:32:55.549Z,3.07
2019-05-01T09:35:23.508Z,2.80
2019-05-01T09:37:51.291Z,2.67
2019-05-01T09:40:19.596Z,2.70
2019-05-01T09:42:47.434Z,2.57
2019-05-01T09:45:15.889Z,1.90
2019-05-01T09:47:43.945Z,2.30
2019-05-01T09:50:11.994Z,2.63
2019-05-01T09:52:59.733Z,2.97
2019-05-01T09:55:45.273Z,2.23
2019-05-01T09:58:13.022Z,2.60
2019-05-01T10:00:40.820Z,2.60
2019-05-01T10:03:13.162Z,2.90
2019-05-01T10:05:42.916Z,3.10
2019-05-01T10:08:09.620Z,2.70
2019-05-01T10:10:37.555Z,2.70
2019-05-01T10:13:05.348Z,2.33
2019-05-01T10:15:33.260Z,3.40
2019-05-01T10:18:00.943Z,3.17
2019-05-01T10:20:28.715Z,3.53
2019-05-01T10:22:56.504Z,3.33
2019-05-01T10:25:24.250Z,4.13
2019-05-01T10:27:58.251Z,4.10
2019-05-01T10:30:48.803Z,3.87
2019-05-01T10:33:22.164Z,3.40
2019-05-01T10:36:24.342Z,3.50
2019-05-01T10:38:52.101Z,3.30
2019-05-01T10:41:19.803Z,3.70
2019-05-01T10:43:47.539Z,3.37
2019-05-01T10:46:15.341Z,4.03
2019-05-01T10:48:43.029Z,4.63
2019-05-01T10:51:10.768Z,4.47
2019-05-01T10:53:38.457Z,4.93
2019-05-01T10:56:06.295Z,4.60
2019-05-01T10:58:33.975Z,4.50
2019-05-01T11:01:14.675Z,4.10
2019-05-01T11:03:42.784Z,4.50
2019-05-01T11:06:10.602Z,4.90
2019-05-01T11:08:38.295Z,5.20
2019-05-01T11:11:06.050Z,5.40
2019-05-01T11:13:33.742Z,5.67
2019-05-01T11:16:01.500Z,5.00
2019-05-01T11:18:29.388Z,5.57
2019-05-01T11:20:57.127Z,5.50
2019-05-01T11:23:24.811Z,5.50
2019-05-01T11:25:53.555Z,5.40
2019-05-01T11:28:21.338Z,6.43
2019-05-01T11:30:49.082Z,6.17
2019-05-01T11:33:44.977Z,5.73
2019-05-01T11:36:30.715Z,7.30
2019-05-01T11:39:10.609Z,7.23
2019-05-01T11:41:47.340Z,6.70
2019-05-01T11:44:15.071Z,7.33
2019-05-01T11:46:42.881Z,8.10
2019-05-01T11:49:10.665Z,7.60
2019-05-01T11:51:38.396Z,8.00
2019-05-01T11:54:06.198Z,8.00
2019-05-01T11:56:33.936Z,7.57
2019-05-01T11:59:01.716Z,8.40
2019-05-01T12:01:29.447Z,7.10
2019-05-01T12:03:57.241Z,7.67
2019-05-01T12:06:24.978Z,7.97
2019-05-01T12:08:52.669Z,8.93
2019-05-01T12:11:22.322Z,9.37
2019-05-01T12:13:50.126Z,9.30
2019-05-01T12:16:26.731Z,10.00
2019-05-01T12:19:05.813Z,9.67
2019-05-01T12:21:33.668Z,10.50
2019-05-01T12:24:01.664Z,10.57
2019-05-01T12:26:29.399Z,11.27
2019-05-01T12:28:57.136Z,11.00
2019-05-01T12:31:25.466Z,11.70
2019-05-01T12:33:53.200Z,12.10
2019-05-01T12:36:20.931Z,11.37
2019-05-01T12:38:48.715Z,12.30
2019-05-01T12:41:51.295Z,14.07
2019-05-01T12:44:19.685Z,15.27
2019-05-01T12:47:10.157Z,14.83
2019-05-01T12:49:37.843Z,14.00
2019-05-01T12:52:10.721Z,14.40
2019-05-01T12:54:52.050Z,14.63
2019-05-01T12:57:20.024Z,15.57
2019-05-01T12:59:47.735Z,14.10
2019-05-01T13:02:15.572Z,13.60
2019-05-01T13:04:43.358Z,15.37
2019-05-01T13:07:11.097Z,13.93
2019-05-01T13:09:38.782Z,14.33
2019-05-01T13:12:06.519Z,14.07
2019-05-01T13:14:34.200Z,15.83
2019-05-01T13:17:01.991Z,15.30
2019-05-01T13:19:30.280Z,15.87
2019-05-01T13:21:58.026Z,14.70
2019-05-01T13:24:25.732Z,15.47
2019-05-01T13:27:06.433Z,16.30
2019-05-01T13:29:41.218Z,16.57
2019-05-01T13:32:32.886Z,16.07
2019-05-01T13:35:00.569Z,15.47
2019-05-01T13:37:28.320Z,15.40
2019-05-01T13:39:56.212Z,14.17
2019-05-01T13:42:23.957Z,14.47
2019-05-01T13:44:51.799Z,14.90
2019-05-01T13:47:19.586Z,14.20
2019-05-01T13:49:48.375Z,16.83
2019-05-01T13:52:20.032Z,16.20
2019-05-01T13:54:47.920Z,18.10
2019-05-01T13:57:15.754Z,18.00
2019-05-01T13:59:43.543Z,16.97
2019-05-01T14:02:13.476Z,17.40
2019-05-01T14:04:41.276Z,17.00
2019-05-01T14:07:16.220Z,17.70
2019-05-01T14:09:38.894Z,16.57
2019-05-01T14:12:06.675Z,17.40
2019-05-01T14:14:35.016Z,17.73
2019-05-01T14:17:02.804Z,16.37
2019-05-01T14:19:31.434Z,16.90
2019-05-01T14:22:17.090Z,17.50
2019-05-01T14:24:48.699Z,16.93
2019-05-01T14:27:16.389Z,16.23
2019-05-01T14:29:44.187Z,17.77
2019-05-01T14:32:11.867Z,18.80
2019-05-01T14:34:39.606Z,16.77
2019-05-01T14:37:08.223Z,17.10
2019-05-01T14:39:36.069Z,17.10
2019-05-01T14:42:04.050Z,18.10
2019-05-01T14:44:36.862Z,16.87
2019-05-01T14:47:02.134Z,19.63
2019-05-01T14:49:29.939Z,20.50
2019-05-01T14:51:57.613Z,21.03
2019-05-01T14:54:27.000Z,21.73
2019-05-01T14:56:54.683Z,20.87
2019-05-01T14:59:22.934Z,21.30
2019-05-01T15:01:50.606Z,20.67
2019-05-01T15:04:19.249Z,20.73
2019-05-01T15:06:46.915Z,20.63
2019-05-01T15:09:14.757Z,23.33
2019-05-01T15:11:43.552Z,24.67
2019-05-01T15:14:29.536Z,23.90
2019-05-01T15:17:19.396Z,23.43
2019-05-01T15:19:51.599Z,22.63
2019-05-01T15:22:19.285Z,21.53
2019-05-01T15:24:47.021Z,21.07
2019-05-01T15:27:14.805Z,20.97
2019-05-01T15:29:42.544Z,21.30
2019-05-01T15:32:10.273Z,19.80
2019-05-01T15:34:38.139Z,19.07
2019-05-01T15:37:06.020Z,19.73
2019-05-01T15:39:39.163Z,19.27
2019-05-01T15:42:26.029Z,18.73
2019-05-01T15:44:53.775Z,20.07
2019-05-01T15:47:21.620Z,19.67
2019-05-01T15:49:49.415Z,19.27
2019-05-01T15:52:17.098Z,18.57
2019-05-01T15:54:44.933Z,19.00
2019-05-01T15:57:12.617Z,19.97
2019-05-01T15:59:40.356Z,20.50
2019-05-01T16:02:08.245Z,21.97
2019-05-01T16:04:35.997Z,22.43
2019-05-01T16:07:04.550Z,22.17
2019-05-01T16:09:32.392Z,22.87
2019-05-01T16:12:15.474Z,21.40
2019-05-01T16:14:48.208Z,20.53
2019-05-01T16:17:15.898Z,21.83
2019-05-01T16:19:43.683Z,21.13
2019-05-01T16:22:11.536Z,20.60
2019-05-01T16:24:39.223Z,21.10
2019-05-01T16:27:10.789Z,21.83
2019-05-01T16:29:39.681Z,22.53
2019-05-01T16:32:07.459Z,21.67
2019-05-01T16:34:35.175Z,23.03
2019-05-01T16:37:03.015Z,22.37
2019-05-01T16:39:50.175Z,21.93
2019-05-01T16:42:19.031Z,20.37
2019-05-01T16:44:46.825Z,21.10
2019-05-01T16:47:14.960Z,20.50
2019-05-01T16:49:42.805Z,20.33
2019-05-01T16:52:11.555Z,21.57
2019-05-01T16:54:39.517Z,23.13
2019-05-01T16:57:09.290Z,24.10
2019-05-01T16:59:37.088Z,24.40
2019-05-01T17:02:13.744Z,23.77
2019-05-01T17:04:47.424Z,23.63
2019-05-01T17:07:27.637Z,23.83
2019-05-01T17:10:13.460Z,24.53
2019-05-01T17:12:46.511Z,24.30
2019-05-01T17:15:17.578Z,25.63
2019-05-01T17:17:45.555Z,24.93
2019-05-01T17:20:14.037Z,25.93
2019-05-01T17:22:41.971Z,24.53
2019-05-01T17:25:09.967Z,24.47
2019-05-01T17:27:37.803Z,23.73
2019-05-01T17:30:07.927Z,25.10
2019-05-01T17:32:39.707Z,24.27
2019-05-01T17:35:06.679Z,23.80
2019-05-01T17:37:35.688Z,24.53
2019-05-01T17:40:04.515Z,24.87
2019-05-01T17:42:32.996Z,23.60
2019-05-01T17:45:02.014Z,24.60
2019-05-01T17:47:29.975Z,23.97
2019-05-01T17:49:58.249Z,23.40
2019-05-01T17:52:25.983Z,23.90
2019-05-01T17:54:53.696Z,23.57
2019-05-01T17:57:21.427Z,22.47
2019-05-01T17:59:51.558Z,24.57
2019-05-01T18:02:27.046Z,27.53
2019-05-01T18:05:23.758Z,28.93
2019-05-01T18:07:51.808Z,26.03
2019-05-01T18:10:20.120Z,22.53
2019-05-01T18:12:48.002Z,34.80
2019-05-01T18:15:16.353Z,28.77
2019-05-01T18:17:46.580Z,22.47
2019-05-01T18:20:14.645Z,37.43
2019-05-01T18:23:08.463Z,25.83
2019-05-01T18:25:42.356Z,21.43
2019-05-01T18:28:32.801Z,21.00
2019-05-01T18:31:00.860Z,20.17
2019-05-01T18:33:28.724Z,19.27
2019-05-01T18:35:56.581Z,19.47
2019-05-01T18:38:47.657Z,18.97
2019-05-01T18:41:31.330Z,20.00
2019-05-01T18:43:59.094Z,21.87
2019-05-01T18:46:27.078Z,22.43
2019-05-01T18:48:55.093Z,23.03
2019-05-01T18:51:23.219Z,22.57
2019-05-01T18:53:50.969Z,24.17
2019-05-01T18:56:18.844Z,24.37
2019-05-01T18:58:46.532Z,29.17
2019-05-01T19:01:14.718Z,25.30
2019-05-01T19:03:44.059Z,23.53
2019-05-01T19:06:12.781Z,23.93
2019-05-01T19:08:40.777Z,23.47
2019-05-01T19:11:12.772Z,25.30
2019-05-01T19:13:39.224Z,23.93
2019-05-01T19:16:08.268Z,24.37
2019-05-01T19:18:37.252Z,26.40
2019-05-01T19:21:05.738Z,25.03
2019-05-01T19:23:33.651Z,163.23
2019-05-01T19:26:05.501Z,36.87
2019-05-01T19:28:31.740Z,25.53
2019-05-01T19:31:00.071Z,25.50
2019-05-01T19:33:28.365Z,23.60
2019-05-01T19:35:56.345Z,23.47
2019-05-01T19:38:24.568Z,22.63
2019-05-01T19:40:52.910Z,22.87
2019-05-01T19:43:20.625Z,23.13
2019-05-01T19:45:48.583Z,22.50
2019-05-01T19:48:16.568Z,22.83
2019-05-01T19:50:48.336Z,22.43
2019-05-01T19:53:14.705Z,21.70
2019-05-01T19:55:44.850Z,21.37
2019-05-01T19:58:13.461Z,21.43
2019-05-01T20:00:58.817Z,21.93
2019-05-01T20:03:30.649Z,21.80
2019-05-01T20:05:59.561Z,21.37
2019-05-01T20:08:26.825Z,22.87
2019-05-01T20:10:56.394Z,22.43
2019-05-01T20:13:25.357Z,21.63
2019-05-01T20:15:53.209Z,20.70
2019-05-01T20:18:20.939Z,20.70
2019-05-01T20:20:48.916Z,20.77
2019-05-01T20:23:16.998Z,20.87
2019-05-01T20:25:45.485Z,20.33
2019-05-01T20:28:13.260Z,21.13
2019-05-01T20:30:41.659Z,20.23
2019-05-01T20:33:09.575Z,21.20
2019-05-01T20:35:38.539Z,21.40
2019-05-01T20:38:06.899Z,20.50
2019-05-01T20:40:34.770Z,20.73
2019-05-01T20:43:05.966Z,21.77
2019-05-01T20:45:32.672Z,20.20
2019-05-01T20:48:00.507Z,20.47
2019-05-01T20:50:28.432Z,21.50
2019-05-01T20:52:56.175Z,23.13
2019-05-01T20:55:23.891Z,22.80
2019-05-01T20:57:54.467Z,21.83
2019-05-01T21:00:24.311Z,22.27
2019-05-01T21:02:52.088Z,23.07
2019-05-01T21:05:34.642Z,21.70
2019-05-01T21:08:08.743Z,22.53
2019-05-01T21:10:58.653Z,21.67
2019-05-01T21:13:26.364Z,22.83
2019-05-01T21:15:56.288Z,22.23
2019-05-01T21:18:26.045Z,22.03
2019-05-01T21:20:54.173Z,22.20
2019-05-01T21:23:23.311Z,22.47
2019-05-01T21:25:51.190Z,22.33
2019-05-01T21:28:18.999Z,22.17
2019-05-01T21:30:47.547Z,21.80
2019-05-01T21:33:15.498Z,24.00
2019-05-01T21:35:44.498Z,23.10
2019-05-01T21:38:12.459Z,22.37
2019-05-01T21:40:41.153Z,23.10
2019-05-01T21:43:09.732Z,21.30
2019-05-01T21:45:37.492Z,22.17
2019-05-01T21:48:05.267Z,22.20
2019-05-01T21:50:33.550Z,22.67
2019-05-01T21:53:05.374Z,21.97
2019-05-01T21:55:32.077Z,23.17
2019-05-01T21:58:00.556Z,22.83
2019-05-01T22:00:33.290Z,21.37
2019-05-01T22:03:01.168Z,22.10
2019-05-01T22:05:28.988Z,21.30
2019-05-01T22:07:58.658Z,22.20
2019-05-01T22:10:28.389Z,21.70
2019-05-01T22:12:56.286Z,20.80
2019-05-01T22:15:30.444Z,21.27
2019-05-01T22:18:07.280Z,22.60
2019-05-01T22:20:42.199Z,21.00
2019-05-01T22:23:11.855Z,22.63
2019-05-01T22:25:43.468Z,22.30
2019-05-01T22:28:18.733Z,22.03
2019-05-01T22:31:04.768Z,22.77
2019-05-01T22:33:32.638Z,22.80
2019-05-01T22:36:00.334Z,21.60
2019-05-01T22:38:28.080Z,21.60
2019-05-01T22:41:09.553Z,21.63
2019-05-01T22:43:37.320Z,22.27
2019-05-01T22:46:07.122Z,22.87
2019-05-01T22:48:36.057Z,22.20
2019-05-01T22:51:10.869Z,23.03
2019-05-01T22:53:38.622Z,21.67
2019-05-01T22:56:06.438Z,21.90
2019-05-01T22:58:34.307Z,21.20
2019-05-01T23:01:02.231Z,20.57
2019-05-01T23:03:41.121Z,20.00
2019-05-01T23:06:09.805Z,21.87
2019-05-01T23:08:38.378Z,20.10
2019-05-01T23:11:19.093Z,20.53
2019-05-01T23:13:36.456Z,22.00
2019-05-01T23:16:06.588Z,19.83
2019-05-01T23:18:34.549Z,19.73
2019-05-01T23:21:02.371Z,20.67
2019-05-01T23:23:30.244Z,21.17
2019-05-01T23:25:58.099Z,20.90
2019-05-01T23:28:25.889Z,20.40
2019-05-01T23:30:54.069Z,20.10
2019-05-01T23:33:21.916Z,17.30
2019-05-01T23:35:49.690Z,18.40
2019-05-01T23:38:17.415Z,18.40
2019-05-01T23:40:46.211Z,19.03
2019-05-01T23:43:14.999Z,18.53
2019-05-01T23:45:42.927Z,17.43
2019-05-01T23:48:10.737Z,18.57
2019-05-01T23:50:38.617Z,17.27
2019-05-01T23:53:09.202Z,17.57
2019-05-01T23:55:36.018Z,16.93
2019-05-01T23:58:03.882Z,15.83
